Time;durP1;ratioP1;P1;durP2;ratioP2;P2;SDS_P1;SDS_P2;PMS_P1;PMS_P2;Temp;Humidity;BMP_temperature;BMP_pressure;BME280_temperature;BME280_humidity;BME280_pressure;Samples;Min_cycle;Max_cycle;Signal;HPM_P1;HPM_P2
2023/06/14 00:00:40;;;;;;;2.17;1.98;;;;;;;23.93;55.81;100965.38;5032905;28;19913;-83
2023/06/14 00:03:09;;;;;;;2.40;2.20;;;;;;;23.93;56.03;100964.50;5025880;28;20038;-84
2023/06/14 00:05:40;;;;;;;2.00;1.90;;;;;;;24.02;56.10;100983.19;5025443;28;20025;-83
2023/06/14 00:08:07;;;;;;;2.10;2.00;;;;;;;23.96;55.89;100975.16;5021649;28;20114;-84
2023/06/14 00:10:35;;;;;;;2.28;1.98;;;;;;;24.00;55.80;100973.41;5049709;28;20034;-84
2023/06/14 00:13:04;;;;;;;2.53;2.00;;;;;;;23.98;55.79;100974.28;5023342;28;20029;-83
2023/06/14 00:15:31;;;;;;;2.25;2.05;;;;;;;23.97;56.14;100974.28;5058499;28;20041;-83
2023/06/14 00:18:00;;;;;;;3.70;2.28;;;;;;;23.97;56.03;100977.84;5031058;28;20477;-83
2023/06/14 00:20:30;;;;;;;2.42;1.88;;;;;;;23.96;55.91;100981.41;5031818;28;20021;-82
2023/06/14 00:22:56;;;;;;;2.22;2.03;;;;;;;23.97;56.22;100968.94;5036118;28;20041;-82
2023/06/14 00:25:25;;;;;;;2.53;2.13;;;;;;;23.97;56.04;100967.16;5030965;28;20022;-83
2023/06/14 00:27:51;;;;;;;2.25;2.03;;;;;;;23.95;56.27;100962.72;5033600;28;20048;-82
2023/06/14 00:30:17;;;;;;;4.10;2.10;;;;;;;23.86;56.41;100947.59;5031248;28;20026;-83
2023/06/14 00:32:43;;;;;;;2.40;2.20;;;;;;;23.90;56.18;100961.84;5031002;28;20033;-82
2023/06/14 00:35:09;;;;;;;2.13;2.00;;;;;;;23.94;56.43;100969.84;5030511;28;20457;-83
2023/06/14 00:37:36;;;;;;;2.28;2.08;;;;;;;23.92;56.27;100960.06;5030969;28;20104;-83
2023/06/14 00:40:04;;;;;;;2.70;2.15;;;;;;;23.91;56.38;100964.47;5030372;28;20040;-83
2023/06/14 00:42:29;;;;;;;3.42;2.20;;;;;;;23.80;56.19;100949.34;5030707;28;20029;-83
2023/06/14 00:44:55;;;;;;;;;;;;;;;23.92;55.93;100958.28;5030388;28;20094;-83
2023/06/14 00:47:21;;;;;;;1.92;1.80;;;;;;;23.78;56.26;100939.56;5029603;28;19909;-83
2023/06/14 00:49:47;;;;;;;2.30;2.10;;;;;;;23.86;56.42;100957.38;5030613;28;20017;-83
2023/06/14 00:52:14;;;;;;;2.10;1.90;;;;;;;23.79;56.49;100945.78;5061347;28;20099;-84
2023/06/14 00:54:41;;;;;;;2.40;2.20;;;;;;;23.86;56.19;100957.38;5042250;28;20049;-82
2023/06/14 00:57:07;;;;;;;2.75;2.25;;;;;;;23.82;56.39;100943.13;5030317;28;20040;-82
2023/06/14 00:59:34;;;;;;;2.70;2.20;;;;;;;23.81;56.20;100949.34;5028495;28;20033;-82
2023/06/14 01:02:00;;;;;;;2.38;2.13;;;;;;;23.82;56.33;100960.91;5027123;28;20036;-82
2023/06/14 01:04:26;;;;;;;2.60;2.40;;;;;;;23.75;56.21;100954.66;5028830;28;20029;-82
2023/06/14 01:07:02;;;;;;;;;;;;;;;23.83;56.24;100960.91;5030423;28;20048;-83
2023/06/14 01:09:38;;;;;;;2.35;2.15;;;;;;;23.76;56.53;100949.34;5028543;28;19916;-82
2023/06/14 01:12:15;;;;;;;2.15;1.95;;;;;;;23.71;56.28;100944.84;5029482;28;20428;-82
2023/06/14 01:14:41;;;;;;;3.33;1.98;;;;;;;23.68;56.73;100942.16;5023770;28;20436;-82
2023/06/14 01:17:15;;;;;;;;;;;;;;;23.79;56.34;100951.09;5030225;28;20084;-82
2023/06/14 01:19:42;;;;;;;2.45;2.25;;;;;;;23.78;56.40;100965.34;5029537;28;19924;-82
2023/06/14 01:22:08;;;;;;;2.15;1.90;;;;;;;23.65;56.58;100940.38;5029953;28;20051;-82
2023/06/14 01:24:34;;;;;;;2.33;2.00;;;;;;;23.77;56.53;100955.59;5028837;28;20060;-82
2023/06/14 01:27:01;;;;;;;2.22;2.03;;;;;;;23.66;56.80;100935.94;5035227;28;20056;-83
2023/06/14 01:29:27;;;;;;;3.35;2.25;;;;;;;23.73;56.87;100959.97;5036730;28;20551;-82
2023/06/14 01:31:54;;;;;;;2.40;2.20;;;;;;;23.72;56.76;100950.19;5027075;28;20112;-82
2023/06/14 01:34:20;;;;;;;2.70;1.80;;;;;;;23.63;56.79;100939.50;5027627;28;20100;-83
2023/06/14 01:36:45;;;;;;;;;;;;;;;23.70;56.59;100953.72;5061788;28;20033;-83
2023/06/14 01:39:15;;;;;;;2.03;1.90;;;;;;;23.68;56.58;100951.06;5029882;28;19912;-82
2023/06/14 01:41:41;;;;;;;2.30;2.10;;;;;;;23.64;56.89;100948.38;5031605;28;20036;-83
2023/06/14 01:44:07;;;;;;;2.20;2.00;;;;;;;23.67;56.88;100954.63;5027720;28;20488;-82
2023/06/14 01:46:33;;;;;;;2.22;2.03;;;;;;;23.60;56.66;100944.84;5021846;28;20107;-82
2023/06/14 01:48:59;;;;;;;2.40;2.20;;;;;;;23.64;56.85;100953.72;5029466;28;20119;-82
2023/06/14 01:51:25;;;;;;;2.45;2.25;;;;;;;23.64;56.68;100946.59;5043858;28;20091;-83
2023/06/14 01:53:50;;;;;;;2.42;2.17;;;;;;;23.62;56.82;100945.72;5029977;28;20041;-83
2023/06/14 01:56:16;;;;;;;;;;;;;;;23.67;56.63;100953.75;5029711;28;20048;-83
2023/06/14 01:58:41;;;;;;;2.17;2.00;;;;;;;23.63;56.61;100958.16;5028083;28;19920;-84
2023/06/14 02:01:07;;;;;;;;;;;;;;;23.66;56.43;100955.50;5028111;28;20440;-83
2023/06/14 02:03:32;;;;;;;2.58;2.08;;;;;;;23.61;56.98;100957.25;5026665;28;19917;-83
2023/06/14 02:05:58;;;;;;;2.20;1.80;;;;;;;23.61;56.73;100956.38;5028734;28;20029;-83
2023/06/14 02:08:24;;;;;;;;;;;;;;;23.63;56.77;100957.28;5029716;28;20029;-84
2023/06/14 02:10:49;;;;;;;3.30;2.20;;;;;;;23.60;56.82;100958.16;5031255;28;20024;-82
2023/06/14 02:13:15;;;;;;;2.40;2.20;;;;;;;23.57;57.11;100956.34;5032679;28;20036;-83
2023/06/14 02:15:43;;;;;;;;;;;;;;;23.60;56.91;100963.50;5036233;28;20128;-83
2023/06/14 02:18:09;;;;;;;2.33;2.13;;;;;;;23.36;56.83;100927.84;5032653;28;19913;-84
2023/06/14 02:20:35;;;;;;;2.50;2.30;;;;;;;23.56;56.79;100961.69;5031649;28;20021;-84
2023/06/14 02:23:01;;;;;;;2.67;2.15;;;;;;;23.50;56.83;100959.00;5036588;28;20040;-83
2023/06/14 02:25:29;;;;;;;;;;;;;;;23.53;56.96;100962.56;5032632;28;20504;-84
2023/06/14 02:27:55;;;;;;;3.15;2.20;;;;;;;23.53;56.82;100965.22;5035902;28;20191;-84
2023/06/14 02:30:21;;;;;;;2.47;2.08;;;;;;;23.37;56.88;100940.28;5033110;28;20550;-83
2023/06/14 02:32:48;;;;;;;2.20;2.10;;;;;;;23.47;56.99;100957.19;5032110;28;20033;-83
2023/06/14 02:35:14;;;;;;;2.35;2.15;;;;;;;23.52;57.00;100967.91;5033228;28;20036;-83
2023/06/14 02:37:40;;;;;;;2.88;2.20;;;;;;;23.48;56.78;100966.09;5033106;28;20507;-83
2023/06/14 02:40:06;;;;;;;;;;;;;;;23.52;56.62;100978.56;5033200;28;20088;-83
2023/06/14 02:42:32;;;;;;;2.53;2.17;;;;;;;23.36;56.92;100962.47;5033177;28;19968;-84
2023/06/14 02:44:58;;;;;;;2.75;2.20;;;;;;;23.23;56.92;100939.34;5052563;28;20488;-84
2023/06/14 02:47:24;;;;;;;2.60;2.40;;;;;;;23.31;57.07;100953.59;5032850;28;20041;-83
2023/06/14 02:49:50;;;;;;;2.78;2.40;;;;;;;23.45;56.55;100979.41;5033129;28;20088;-83
2023/06/14 02:52:16;;;;;;;2.78;2.30;;;;;;;23.43;57.07;100970.50;5030829;28;20029;-83
2023/06/14 02:54:41;;;;;;;2.70;2.50;;;;;;;23.35;56.92;100968.72;5031939;28;20536;-83
2023/06/14 02:57:07;;;;;;;2.33;2.20;;;;;;;23.45;57.13;100982.97;5030487;28;20477;-83
2023/06/14 02:59:34;;;;;;;2.90;2.65;;;;;;;23.35;56.99;100966.03;5030789;28;20116;-83
2023/06/14 03:01:59;;;;;;;3.13;2.50;;;;;;;23.42;56.90;100982.94;5019837;28;20036;-83
2023/06/14 03:04:25;;;;;;;3.67;2.25;;;;;;;23.34;56.97;100976.69;5031403;28;20029;-83
2023/06/14 03:06:53;;;;;;;2.75;2.03;;;;;;;23.39;56.71;100988.28;5031867;28;20114;-83
2023/06/14 03:09:18;;;;;;;2.80;2.30;;;;;;;23.41;57.02;100985.59;5031128;28;20109;-85
2023/06/14 03:11:45;;;;;;;2.88;2.45;;;;;;;23.31;56.80;100974.03;5030734;28;20485;-83
2023/06/14 03:14:11;;;;;;;2.45;2.25;;;;;;;23.28;56.85;100972.25;5032476;28;20106;-84
2023/06/14 03:16:37;;;;;;;;;;;;;;;23.39;56.81;100990.94;5032821;28;20463;-83
2023/06/14 03:19:02;;;;;;;3.15;2.35;;;;;;;23.33;56.93;100988.25;5034584;28;20372;-83
2023/06/14 03:21:28;;;;;;;;;;;;;;;23.41;56.90;100993.59;5029689;28;20030;-82
2023/06/14 03:23:54;;;;;;;2.38;2.17;;;;;;;23.34;57.05;100993.56;5029827;28;21643;-83
2023/06/14 03:26:20;;;;;;;2.80;2.33;;;;;;;23.36;56.73;100993.59;5021060;28;20073;-82
2023/06/14 03:28:46;;;;;;;3.20;2.50;;;;;;;23.28;56.96;100988.22;5030691;28;20095;-83
2023/06/14 03:31:12;;;;;;;;;;;;;;;23.38;56.97;100999.81;5033318;28;20112;-83
2023/06/14 03:33:38;;;;;;;2.60;2.40;;;;;;;23.19;57.27;100973.97;5027093;28;19913;-82
2023/06/14 03:36:05;;;;;;;2.63;2.42;;;;;;;23.31;56.94;100998.91;5024781;28;20075;-82
2023/06/14 03:38:30;;;;;;;3.22;2.45;;;;;;;23.23;57.24;100987.28;5054929;28;20513;-83
2023/06/14 03:40:56;;;;;;;2.83;2.33;;;;;;;23.30;57.38;100997.09;5024926;28;20065;-83
2023/06/14 03:43:21;;;;;;;;;;;;;;;23.34;56.88;100996.22;5028388;28;20044;-83
2023/06/14 03:45:47;;;;;;;2.58;2.30;;;;;;;23.08;57.45;100964.13;5028629;28;19913;-83
2023/06/14 03:48:12;;;;;;;;;;;;;;;23.30;56.99;101002.41;5029439;28;20480;-83
2023/06/14 03:50:38;;;;;;;3.25;2.30;;;;;;;23.24;56.90;100981.09;5029881;28;19987;-83
2023/06/14 03:53:04;;;;;;;2.88;2.17;;;;;;;23.25;57.05;100989.97;5017484;28;20033;-83
2023/06/14 03:55:31;;;;;;;;;;;;;;;23.29;57.08;101000.66;5033210;28;20163;-84
2023/06/14 03:57:57;;;;;;;3.75;2.50;;;;;;;23.18;57.17;100981.06;5029134;28;20403;-84
2023/06/14 04:00:23;;;;;;;;;;;;;;;23.28;57.20;100995.31;5029085;28;20026;-84
2023/06/14 04:02:49;;;;;;;3.05;2.20;;;;;;;23.25;57.12;100996.19;5027406;28;19928;-83
2023/06/14 04:05:16;;;;;;;2.45;2.25;;;;;;;23.25;57.08;100992.66;5024403;28;20041;-83
2023/06/14 04:07:44;;;;;;;2.50;2.30;;;;;;;23.20;56.95;100994.38;5030302;28;20075;-82
2023/06/14 04:10:14;;;;;;;2.70;2.47;;;;;;;23.22;57.12;100988.19;5028452;28;20489;-82
2023/06/14 04:12:40;;;;;;;2.10;1.92;;;;;;;23.19;57.13;100981.94;5012236;28;20029;-83
2023/06/14 04:15:07;;;;;;;2.75;2.30;;;;;;;23.23;57.04;100989.97;5028136;28;22082;-81
2023/06/14 04:17:33;;;;;;;2.30;2.10;;;;;;;22.97;57.29;100945.38;5018370;28;20087;-82
2023/06/14 04:20:00;;;;;;;2.63;2.42;;;;;;;23.16;56.85;100981.03;5028103;28;20029;-80
2023/06/14 04:22:30;;;;;;;2.38;2.17;;;;;;;23.20;56.89;100999.69;5030795;28;20064;-80
2023/06/14 04:24:56;;;;;;;2.33;2.13;;;;;;;23.16;57.03;100991.72;5029955;28;20025;-81
2023/06/14 04:27:25;;;;;;;;;;;;;;;23.21;56.92;101001.50;5030313;28;20033;-80
2023/06/14 04:29:57;;;;;;;2.38;2.15;;;;;;;23.21;56.87;101007.72;5030055;28;20003;-81
2023/06/14 04:32:25;;;;;;;2.15;2.03;;;;;;;23.19;56.87;101009.47;5030293;28;20113;-80
2023/06/14 04:34:57;;;;;;;2.50;2.30;;;;;;;23.12;57.28;101005.88;5062066;28;20030;-80
2023/06/14 04:37:23;;;;;;;2.30;2.10;;;;;;;23.15;57.25;101015.66;5030988;28;20048;-81
2023/06/14 04:39:50;;;;;;;2.58;2.38;;;;;;;23.17;57.20;101019.22;5029327;28;20492;-81
2023/06/14 04:42:16;;;;;;;3.47;2.40;;;;;;;23.14;57.35;101008.56;5030777;28;20053;-81
2023/06/14 04:44:43;;;;;;;2.55;2.35;;;;;;;23.16;57.57;101017.47;5044275;28;20555;-80
2023/06/14 04:47:09;;;;;;;3.15;2.42;;;;;;;23.13;57.62;101017.44;5031516;28;20033;-81
2023/06/14 04:49:35;;;;;;;3.55;2.40;;;;;;;23.09;57.40;101007.63;5031095;28;20100;-83
2023/06/14 04:52:01;;;;;;;2.25;2.05;;;;;;;23.15;57.58;101024.53;5032128;28;20036;-82
2023/06/14 04:54:27;;;;;;;2.30;2.10;;;;;;;23.17;57.25;101035.22;5029543;28;20033;-82
2023/06/14 04:56:54;;;;;;;2.50;2.30;;;;;;;23.08;57.23;101025.41;5030705;28;20488;-83
2023/06/14 04:59:22;;;;;;;2.72;2.28;;;;;;;23.17;57.30;101041.44;5013437;28;20416;-82
2023/06/14 05:01:52;;;;;;;3.10;2.20;;;;;;;23.14;57.34;101049.41;5021326;28;20501;-82
2023/06/14 05:04:19;;;;;;;2.58;2.38;;;;;;;23.15;57.77;101042.31;5030743;28;20037;-82
2023/06/14 05:06:45;;;;;;;2.80;2.20;;;;;;;23.16;57.61;101045.00;5029486;28;20111;-81
2023/06/14 05:09:11;;;;;;;2.40;2.20;;;;;;;23.11;57.55;101041.41;5028059;28;20028;-81
2023/06/14 05:11:37;;;;;;;2.30;2.10;;;;;;;23.14;57.55;101046.75;5027237;28;20025;-81
2023/06/14 05:14:02;;;;;;;2.42;2.22;;;;;;;22.91;57.72;101016.38;5025401;28;20041;-82
2023/06/14 05:16:29;;;;;;;2.60;2.10;;;;;;;23.09;57.41;101045.84;5031001;28;20100;-83
2023/06/14 05:18:55;;;;;;;2.60;2.40;;;;;;;23.15;57.62;101055.63;5030350;28;20115;-81
2023/06/14 05:21:20;;;;;;;2.78;2.58;;;;;;;23.13;57.51;101057.38;5029921;28;20026;-81
2023/06/14 05:23:46;;;;;;;;;;;;;;;23.16;57.28;101063.63;5029619;28;20427;-81
2023/06/14 05:26:12;;;;;;;2.10;2.00;;;;;;;23.18;57.57;101066.31;5012869;28;19936;-81
2023/06/14 05:28:38;;;;;;;2.50;2.20;;;;;;;23.16;57.77;101063.63;5052039;28;20527;-81
2023/06/14 05:31:04;;;;;;;;;;;;;;;23.20;57.58;101074.31;5018172;28;20536;-81
2023/06/14 05:33:29;;;;;;;2.58;2.38;;;;;;;23.12;57.35;101061.84;5027582;28;19909;-81
2023/06/14 05:35:55;;;;;;;2.45;2.25;;;;;;;23.16;57.30;101063.63;5028420;28;20493;-81
2023/06/14 05:38:21;;;;;;;2.40;2.20;;;;;;;23.15;57.65;101075.16;5025982;28;20416;-81
2023/06/14 05:40:47;;;;;;;;;;;;;;;23.17;57.97;101077.84;5018044;28;20026;-81
2023/06/14 05:43:12;;;;;;;2.55;2.35;;;;;;;23.18;57.42;101082.31;5021821;28;19913;-81
2023/06/14 05:45:38;;;;;;;2.75;2.50;;;;;;;23.18;57.83;101087.63;5031287;28;20029;-81
2023/06/14 05:48:04;;;;;;;2.90;2.58;;;;;;;23.20;57.61;101090.28;5034061;28;20413;-81
2023/06/14 05:50:30;;;;;;;2.53;2.33;;;;;;;23.19;57.29;101086.75;5034232;28;20477;-80
2023/06/14 05:52:55;;;;;;;;;;;;;;;23.23;57.14;101093.00;5025279;28;20037;-83
2023/06/14 05:55:21;;;;;;;2.53;2.33;;;;;;;23.14;57.62;101086.72;5031477;28;20023;-83
2023/06/14 05:57:48;;;;;;;3.05;2.10;;;;;;;22.96;57.29;101052.81;5030494;28;20037;-83
2023/06/14 06:00:15;;;;;;;2.70;2.47;;;;;;;23.20;57.07;101093.88;5044334;28;20405;-84
2023/06/14 06:02:45;;;;;;;2.50;2.30;;;;;;;22.86;56.93;101031.41;5046903;28;20025;-83
2023/06/14 06:05:11;;;;;;;2.47;2.28;;;;;;;23.15;57.10;101076.94;5010327;28;20072;-82
2023/06/14 06:07:39;;;;;;;3.35;2.50;;;;;;;23.23;57.03;101101.00;5029616;28;20090;-84
2023/06/14 06:10:07;;;;;;;2.80;2.45;;;;;;;23.21;57.27;101100.09;5022426;28;20055;-85
2023/06/14 06:12:33;;;;;;;2.88;2.38;;;;;;;22.62;57.33;101009.03;5036235;28;20022;-88
2023/06/14 06:15:00;;;;;;;2.80;2.60;;;;;;;23.21;57.49;101111.63;5030393;28;20048;-84
2023/06/14 06:17:27;;;;;;;2.60;2.40;;;;;;;23.19;57.56;101109.84;5033233;28;20037;-83
2023/06/14 06:19:54;;;;;;;2.75;2.55;;;;;;;22.66;57.78;101023.28;5030645;28;20120;-83
2023/06/14 06:22:20;;;;;;;2.70;2.50;;;;;;;22.62;57.52;101009.03;5030790;28;20030;-84
2023/06/14 06:24:45;;;;;;;2.53;2.33;;;;;;;22.62;57.72;101010.81;5059171;28;20026;-83
2023/06/14 06:27:12;;;;;;;2.40;2.20;;;;;;;23.16;57.90;101110.72;5027275;28;20468;-82
2023/06/14 06:29:38;;;;;;;2.47;2.28;;;;;;;22.84;57.73;101055.38;5057636;28;20025;-82
2023/06/14 06:32:29;;;;;;;2.67;2.47;;;;;;;23.23;57.89;101116.97;5027199;28;20044;-83
2023/06/14 06:34:55;;;;;;;2.80;2.60;;;;;;;22.89;57.79;101061.63;5022710;28;20043;-83
2023/06/14 06:37:21;;;;;;;2.70;2.50;;;;;;;22.66;57.72;101015.28;5035002;28;20064;-82
2023/06/14 06:39:47;;;;;;;2.90;2.67;;;;;;;22.84;57.78;101049.13;5030018;28;20431;-83
2023/06/14 06:42:13;;;;;;;3.97;2.70;;;;;;;23.21;57.66;101108.06;5028567;28;20048;-82
2023/06/14 06:44:39;;;;;;;2.70;2.40;;;;;;;22.94;57.91;101070.56;5009158;28;20717;-82
2023/06/14 06:47:07;;;;;;;2.90;2.60;;;;;;;23.22;57.72;101104.50;5011231;28;20627;-84
2023/06/14 06:49:40;;;;;;;3.17;2.40;;;;;;;22.91;57.80;101059.88;5036468;28;20051;-83
2023/06/14 06:52:07;;;;;;;2.72;2.50;;;;;;;22.75;57.74;101029.56;5053413;28;20109;-84
2023/06/14 06:54:39;;;;;;;2.55;2.35;;;;;;;22.87;57.57;101046.50;5026927;28;20049;-85
2023/06/14 06:57:07;;;;;;;2.88;2.65;;;;;;;23.14;57.32;101089.38;5013203;28;20071;-84
2023/06/14 06:59:34;;;;;;;3.33;2.80;;;;;;;22.88;57.44;101049.19;5029442;28;20033;-85
2023/06/14 07:02:00;;;;;;;2.97;2.78;;;;;;;23.00;57.65;101061.69;5018425;28;20025;-87
2023/06/14 07:04:44;;;;;;;2.80;2.60;;;;;;;22.80;57.33;101026.94;5012586;28;20564;-85
2023/06/14 07:07:18;;;;;;;2.53;2.33;;;;;;;23.30;57.38;101111.69;5031256;28;20038;-88
2023/06/14 07:09:45;;;;;;;2.65;2.45;;;;;;;23.11;57.01;101085.78;5012982;28;20127;-86
2023/06/14 07:12:15;;;;;;;3.13;2.88;;;;;;;22.81;57.10;101031.38;5015712;28;20041;-87
2023/06/14 07:14:49;;;;;;;3.13;2.83;;;;;;;23.25;57.16;101108.09;5024305;28;20056;-87
2023/06/14 07:17:19;;;;;;;3.08;2.88;;;;;;;22.95;57.63;101067.00;5037874;28;20037;-83
2023/06/14 07:19:47;;;;;;;3.03;2.70;;;;;;;22.76;57.46;101027.78;5012591;28;20034;-84
2023/06/14 07:22:13;;;;;;;3.33;3.03;;;;;;;22.82;57.29;101037.56;5015329;28;20026;-84
2023/06/14 07:24:40;;;;;;;3.10;2.63;;;;;;;23.00;57.59;101055.50;5031133;28;20544;-82
2023/06/14 07:27:08;;;;;;;2.67;2.47;;;;;;;23.10;57.39;101081.34;5031410;28;20029;-81
2023/06/14 07:29:34;;;;;;;2.50;2.30;;;;;;;23.37;57.44;101124.19;5029253;28;20037;-81
2023/06/14 07:31:59;;;;;;;3.28;2.97;;;;;;;23.38;57.64;101125.06;5035812;28;20036;-82
2023/06/14 07:34:26;;;;;;;3.30;2.90;;;;;;;23.40;58.05;101119.75;5032385;28;20106;-82
2023/06/14 07:36:52;;;;;;;3.65;2.90;;;;;;;23.39;58.09;101118.88;5030560;28;20167;-84
2023/06/14 07:39:17;;;;;;;3.13;2.83;;;;;;;23.31;57.63;101099.28;5030290;28;20480;-86
2023/06/14 07:41:43;;;;;;;3.03;2.75;;;;;;;23.27;57.63;101093.03;5057684;28;20030;-85
2023/06/14 07:44:08;;;;;;;2.65;2.45;;;;;;;23.28;57.85;101085.91;5024060;28;20033;-86
2023/06/14 07:46:34;;;;;;;;;;;;;;;23.40;57.64;101112.66;5031855;28;20046;-84
2023/06/14 07:49:03;;;;;;;3.08;2.72;;;;;;;23.29;57.93;101101.91;5037136;28;19916;-84
2023/06/14 07:51:28;;;;;;;4.22;2.95;;;;;;;23.22;57.94;101083.19;5032804;28;20026;-84
2023/06/14 07:53:54;;;;;;;4.10;3.10;;;;;;;23.40;57.92;101112.66;5032599;28;20044;-83
2023/06/14 07:56:20;;;;;;;;;;;;;;;23.41;58.06;101116.19;5032468;28;20038;-84
2023/06/14 07:58:46;;;;;;;5.55;3.30;;;;;;;23.40;57.95;101120.66;5031262;28;19916;-84
2023/06/14 08:01:12;;;;;;;3.13;2.83;;;;;;;23.43;58.00;101126.00;5036885;28;20030;-83
2023/06/14 08:03:37;;;;;;;;;;;;;;;23.42;58.13;101134.00;5025683;28;20087;-85
2023/06/14 08:06:04;;;;;;;3.75;3.30;;;;;;;23.44;58.07;101137.56;5031533;28;20008;-85
2023/06/14 08:08:30;;;;;;;3.55;3.25;;;;;;;23.42;58.49;101136.66;5029916;28;20654;-84
2023/06/14 08:10:56;;;;;;;3.40;2.92;;;;;;;23.33;58.22;101122.38;5030001;28;20037;-86
2023/06/14 08:13:21;;;;;;;7.32;3.03;;;;;;;23.37;58.53;101125.97;5031092;28;20029;-86
2023/06/14 08:15:47;;;;;;;;;;;;;;;23.46;58.74;101141.13;5032281;28;20049;-84
2023/06/14 08:18:12;;;;;;;4.00;2.95;;;;;;;23.33;58.87;101119.72;5030374;28;20380;-84
2023/06/14 08:24:07;;;;;;;3.55;2.72;;;;;;;23.15;58.81;101080.50;5015716;28;20054;-84
2023/06/14 08:26:32;;;;;;;;;;;;;;;23.48;59.15;101137.59;5061946;28;20397;-83
2023/06/14 08:28:58;;;;;;;4.75;3.35;;;;;;;23.37;60.04;101112.66;5023834;28;19931;-84
2023/06/14 08:31:35;;;;;;;;;;;;;;;;;;;;;
2023/06/14 08:38:14;;;;;;;7.13;3.53;;;;;;;23.07;62.70;101076.00;5031286;28;20564;-85
2023/06/14 08:41:25;;;;;;;6.50;3.60;;;;;;;23.18;63.15;101084.97;5029860;28;20030;-85
2023/06/14 08:44:37;;;;;;;7.40;4.22;;;;;;;23.44;64.03;101124.22;4988079;28;20533;-84
2023/06/14 08:47:05;;;;;;;6.38;4.05;;;;;;;23.52;65.99;101142.06;4966776;28;20079;-84
2023/06/14 08:49:31;;;;;;;7.57;4.15;;;;;;;23.31;65.00;101093.94;4971944;28;20105;-85
2023/06/14 08:51:58;;;;;;;9.20;4.35;;;;;;;23.44;65.17;101110.91;5008879;28;20428;-85
2023/06/14 08:54:27;;;;;;;13.05;4.13;;;;;;;23.53;65.55;101117.16;5044115;28;20044;-86
2023/06/14 09:00:14;;;;;;;9.63;4.25;;;;;;;23.42;65.58;101088.69;5011187;28;20548;-86
2023/06/14 09:02:45;;;;;;;8.75;4.43;;;;;;;23.25;66.03;101053.94;5027342;28;20022;-87
2023/06/14 09:05:13;;;;;;;7.85;4.22;;;;;;;23.74;66.62;101136.84;5027032;28;20112;-85
2023/06/14 09:07:41;;;;;;;8.80;4.90;;;;;;;23.63;66.74;101123.47;5029314;28;20029;-85
2023/06/14 09:10:09;;;;;;;12.13;4.40;;;;;;;23.71;66.58;101128.84;5027038;28;20029;-84
2023/06/14 09:12:36;;;;;;;9.73;4.38;;;;;;;23.62;66.23;101120.78;5045644;28;20061;-85
2023/06/14 09:15:05;;;;;;;;;;;;;;;23.70;65.91;101127.06;5028457;28;20045;-85
2023/06/14 09:17:34;;;;;;;6.47;4.30;;;;;;;23.71;66.26;101129.75;5031115;28;20007;-85
2023/06/14 09:20:00;;;;;;;8.98;4.47;;;;;;;23.66;66.29;101122.59;5029713;28;20554;-83
2023/06/14 09:22:28;;;;;;;11.57;4.40;;;;;;;23.72;65.98;101123.50;5030362;28;20025;-84
2023/06/14 09:24:54;;;;;;;6.13;4.07;;;;;;;23.72;65.59;101131.50;5023023;28;20038;-84
2023/06/14 09:27:19;;;;;;;5.57;4.22;;;;;;;23.35;65.75;101071.75;5031331;28;20397;-84
2023/06/14 09:29:45;;;;;;;;;;;;;;;23.75;65.76;101126.22;5034451;28;20033;-83
2023/06/14 09:32:10;;;;;;;5.22;3.80;;;;;;;23.73;65.13;101119.09;5030469;28;19913;-84
2023/06/14 09:34:37;;;;;;;7.53;4.57;;;;;;;23.76;65.01;101125.34;5030795;28;20045;-84
2023/06/14 09:37:02;;;;;;;7.07;4.18;;;;;;;23.72;64.99;101117.28;5028794;28;20094;-86
2023/06/14 09:39:28;;;;;;;8.25;4.13;;;;;;;23.77;64.91;101124.47;5028750;28;20112;-85
2023/06/14 09:41:53;;;;;;;;;;;;;;;23.82;65.23;101132.50;5029365;28;20415;-85
2023/06/14 09:44:20;;;;;;;7.82;4.15;;;;;;;23.56;65.08;101084.34;5029749;28;19909;-86
2023/06/14 09:46:46;;;;;;;5.68;4.20;;;;;;;23.78;63.90;101114.69;5028956;28;20489;-86
2023/06/14 09:49:11;;;;;;;6.68;4.43;;;;;;;23.91;63.18;101131.66;5043593;28;20087;-86
2023/06/14 09:51:43;;;;;;;;;;;;;;;23.94;62.68;101129.91;5019256;28;20029;-86
2023/06/14 09:54:18;;;;;;;5.85;3.92;;;;;;;23.62;62.95;101078.13;5029869;28;20003;-86
2023/06/14 09:56:47;;;;;;;7.07;4.10;;;;;;;23.86;63.09;101123.63;5028890;28;20034;-85
2023/06/14 09:59:13;;;;;;;6.22;3.97;;;;;;;23.75;63.05;101104.00;5028809;28;20025;-86
2023/06/14 10:01:42;;;;;;;;;;;;;;;23.97;62.74;101131.69;5028602;28;20087;-85
2023/06/14 10:04:16;;;;;;;6.50;4.50;;;;;;;23.62;62.98;101080.78;5027297;28;19951;-86
2023/06/14 10:06:45;;;;;;;5.78;4.30;;;;;;;23.93;63.03;101130.75;5028690;28;20033;-85
2023/06/14 10:09:11;;;;;;;5.15;3.88;;;;;;;24.00;62.95;101138.78;5011176;28;20091;-85
2023/06/14 10:11:43;;;;;;;;;;;;;;;24.04;62.49;101133.47;5028874;28;20022;-85
2023/06/14 10:14:10;;;;;;;7.00;3.88;;;;;;;24.04;62.44;101132.59;5024769;28;20377;-85
2023/06/14 10:17:03;;;;;;;6.13;4.00;;;;;;;24.06;62.18;101136.16;5056676;28;20030;-85
2023/06/14 10:19:35;;;;;;;4.95;3.95;;;;;;;23.86;62.63;101112.06;5020626;28;20025;-86
2023/06/14 10:22:06;;;;;;;5.13;3.90;;;;;;;24.03;62.71;101139.72;5050761;28;20112;-86
2023/06/14 10:24:40;;;;;;;6.45;4.47;;;;;;;23.95;63.41;101134.31;5028280;28;20057;-83
2023/06/14 10:27:10;;;;;;;5.03;3.92;;;;;;;24.02;63.20;101151.25;5023598;28;20126;-86
2023/06/14 10:30:01;;;;;;;7.45;4.45;;;;;;;23.69;62.75;101079.94;5024257;28;20040;-85
2023/06/14 10:32:29;;;;;;;6.18;4.15;;;;;;;24.07;62.67;101144.19;5021823;28;20029;-86
2023/06/14 10:34:59;;;;;;;8.38;4.20;;;;;;;24.06;63.00;101141.50;5032215;28;20112;-84
2023/06/14 10:37:25;;;;;;;6.30;3.95;;;;;;;24.07;62.69;101144.19;5064465;28;20025;-85
2023/06/14 10:39:50;;;;;;;;;;;;;;;24.11;62.30;101148.66;5065095;28;20037;-85
2023/06/14 10:42:16;;;;;;;6.25;4.00;;;;;;;24.12;62.36;101146.88;5031067;28;19917;-85
2023/06/14 10:44:41;;;;;;;;;;;;;;;24.12;62.81;101155.75;5048263;28;20033;-86
2023/06/14 10:47:23;;;;;;;7.47;4.05;;;;;;;23.91;62.89;101116.53;5032330;28;19909;-87
2023/06/14 10:49:54;;;;;;;6.93;4.00;;;;;;;24.11;63.01;101158.44;5034871;28;20030;-84
2023/06/14 10:52:28;;;;;;;6.20;4.35;;;;;;;24.04;62.93;101130.81;5031068;28;20095;-86
2023/06/14 10:55:10;;;;;;;4.22;3.83;;;;;;;24.09;62.58;101139.75;5031652;28;20029;-85
2023/06/14 10:57:38;;;;;;;8.52;4.28;;;;;;;24.17;62.25;101145.09;5031831;28;20090;-85
2023/06/14 11:00:26;;;;;;;7.57;4.55;;;;;;;24.22;63.11;101151.34;5064261;28;20029;-85
2023/06/14 11:03:20;;;;;;;5.32;4.05;;;;;;;24.23;61.82;101141.56;5048314;28;20029;-84
2023/06/14 11:05:53;;;;;;;5.20;4.03;;;;;;;24.21;62.77;101154.00;5030549;28;20107;-84
2023/06/14 11:08:47;;;;;;;7.53;4.50;;;;;;;24.25;62.19;101155.81;5032497;28;20056;-83
2023/06/14 11:11:13;;;;;;;5.82;4.15;;;;;;;24.14;62.82;101132.63;5032079;28;20033;-85
2023/06/14 11:13:39;;;;;;;;;;;;;;;24.26;62.87;101149.59;5030807;28;20060;-86
2023/06/14 11:16:16;;;;;;;6.13;3.97;;;;;;;24.28;63.11;101146.03;5030997;28;20328;-85
2023/06/14 11:18:44;;;;;;;5.50;4.10;;;;;;;24.30;62.44;101148.69;5048284;28;20436;-86
2023/06/14 11:21:10;;;;;;;7.25;4.13;;;;;;;24.29;63.39;101152.28;5031397;28;20021;-85
2023/06/14 11:23:35;;;;;;;;;;;;;;;24.29;63.96;101150.47;5032585;28;20040;-86
2023/06/14 11:26:01;;;;;;;8.18;3.80;;;;;;;24.26;64.58;101147.81;5031354;28;19996;-85
2023/06/14 11:28:39;;;;;;;;;;;;;;;24.29;65.14;101149.59;5031095;28;20493;-85
2023/06/14 11:31:04;;;;;;;10.35;4.60;;;;;;;23.88;66.12;101088.97;5014560;28;19919;-85
2023/06/14 11:33:30;;;;;;;;;;;;;;;24.25;66.83;101147.81;5064467;28;20116;-85
2023/06/14 11:35:55;;;;;;;5.57;4.32;;;;;;;24.22;67.25;101138.00;5032172;28;19966;-85
2023/06/14 11:38:21;;;;;;;;;;;;;;;24.27;67.63;101149.59;5032570;28;20080;-85
2023/06/14 11:40:46;;;;;;;10.55;5.55;;;;;;;24.01;68.14;101105.91;5030667;28;20797;-85
2023/06/14 11:43:13;;;;;;;;;;;;;;;24.29;68.61;101149.59;5030052;28;20434;-84
2023/06/14 11:45:39;;;;;;;12.68;5.40;;;;;;;24.00;68.95;101097.00;5031703;28;19909;-84
2023/06/14 11:48:07;;;;;;;;;;;;;;;24.31;69.89;101148.72;5031706;28;20025;-85
2023/06/14 11:50:38;;;;;;;12.30;5.40;;;;;;;24.03;69.45;101088.13;5032259;28;19913;-85